sensor_id;sensor_type;location;lat;lon;timestamp;pressure;altitude;pressure_sealevel;temperature;humidity
11444;BME280;5778;47.856;12.154;2023-08-21T00:00:47;96833.88;;;20.23;100.00
11444;BME280;5778;47.856;12.154;2023-08-21T00:03:14;96825.88;;;20.32;100.00
11444;BME280;5778;47.856;12.154;2023-08-21T00:05:42;96834.47;;;20.20;100.00
11444;BME280;5778;47.856;12.154;2023-08-21T00:08:09;96836.47;;;20.15;100.00
11444;BME280;5778;47.856;12.154;2023-08-21T00:10:37;96831.28;;;20.18;100.00
11444;BME280;5778;47.856;12.154;2023-08-21T00:13:04;96829.25;;;20.10;100.00
11444;BME280;5778;47.856;12.154;2023-08-21T00:15:31;96832.34;;;20.31;100.00
11444;BME280;5778;47.856;12.154;2023-08-21T00:17:58;96832.25;;;20.36;100.00
11444;BME280;5778;47.856;12.154;2023-08-21T00:20:26;96827.38;;;20.38;100.00
11444;BME280;5778;47.856;12.154;2023-08-21T00:22:54;96830.28;;;20.41;100.00
11444;BME280;5778;47.856;12.154;2023-08-21T00:25:21;96816.06;;;20.36;100.00
11444;BME280;5778;47.856;12.154;2023-08-21T00:27:48;96818.66;;;20.41;100.00
11444;BME280;5778;47.856;12.154;2023-08-21T00:30:16;96819.66;;;20.31;100.00
11444;BME280;5778;47.856;12.154;2023-08-21T00:32:43;96822.25;;;20.36;100.00
11444;BME280;5778;47.856;12.154;2023-08-21T00:35:09;96817.16;;;20.21;100.00
11444;BME280;5778;47.856;12.154;2023-08-21T00:37:37;96813.75;;;20.02;100.00
11444;BME280;5778;47.856;12.154;2023-08-21T00:40:07;96813.41;;;19.90;100.00
11444;BME280;5778;47.856;12.154;2023-08-21T00:42:34;96817.13;;;19.94;100.00
11444;BME280;5778;47.856;12.154;2023-08-21T00:45:01;96823.44;;;19.90;100.00
11444;BME280;5778;47.856;12.154;2023-08-21T00:47:28;96816.53;;;19.97;100.00
11444;BME280;5778;47.856;12.154;2023-08-21T00:49:55;96823.81;;;19.97;100.00
11444;BME280;5778;47.856;12.154;2023-08-21T00:52:23;96821.84;;;19.89;100.00
11444;BME280;5778;47.856;12.154;2023-08-21T00:54:50;96822.22;;;19.96;100.00
11444;BME280;5778;47.856;12.154;2023-08-21T00:57:20;96825.50;;;19.93;100.00
11444;BME280;5778;47.856;12.154;2023-08-21T00:59:47;96816.13;;;19.90;100.00
11444;BME280;5778;47.856;12.154;2023-08-21T01:02:14;96820.97;;;20.07;100.00
11444;BME280;5778;47.856;12.154;2023-08-21T01:04:42;96819.09;;;20.07;100.00
11444;BME280;5778;47.856;12.154;2023-08-21T01:07:09;96822.13;;;19.87;100.00
11444;BME280;5778;47.856;12.154;2023-08-21T01:09:41;96814.13;;;19.82;100.00
11444;BME280;5778;47.856;12.154;2023-08-21T01:12:17;96821.50;;;19.77;100.00
11444;BME280;5778;47.856;12.154;2023-08-21T01:14:53;96825.75;;;19.51;100.00
11444;BME280;5778;47.856;12.154;2023-08-21T01:17:25;96823.78;;;19.70;100.00
11444;BME280;5778;47.856;12.154;2023-08-21T01:19:53;96823.88;;;19.65;100.00
11444;BME280;5778;47.856;12.154;2023-08-21T01:22:25;96822.97;;;19.56;100.00
11444;BME280;5778;47.856;12.154;2023-08-21T01:24:54;96831.19;;;19.64;100.00
11444;BME280;5778;47.856;12.154;2023-08-21T01:27:21;96829.16;;;19.56;100.00
11444;BME280;5778;47.856;12.154;2023-08-21T01:29:48;96832.63;;;19.43;100.00
11444;BME280;5778;47.856;12.154;2023-08-21T01:32:20;96831.16;;;19.51;100.00
11444;BME280;5778;47.856;12.154;2023-08-21T01:34:50;96829.94;;;19.43;100.00
11444;BME280;5778;47.856;12.154;2023-08-21T01:37:18;96825.75;;;19.51;100.00
11444;BME280;5778;47.856;12.154;2023-08-21T01:39:48;96834.66;;;19.65;100.00
11444;BME280;5778;47.856;12.154;2023-08-21T01:42:17;96830.97;;;19.61;100.00
11444;BME280;5778;47.856;12.154;2023-08-21T01:44:43;96819.91;;;19.44;100.00
11444;BME280;5778;47.856;12.154;2023-08-21T01:47:11;96817.09;;;19.35;100.00
11444;BME280;5778;47.856;12.154;2023-08-21T01:49:38;96820.47;;;19.27;100.00
11444;BME280;5778;47.856;12.154;2023-08-21T01:52:05;96828.66;;;19.22;100.00
11444;BME280;5778;47.856;12.154;2023-08-21T01:54:32;96827.69;;;19.32;100.00
11444;BME280;5778;47.856;12.154;2023-08-21T01:56:59;96826.28;;;19.34;100.00
11444;BME280;5778;47.856;12.154;2023-08-21T01:59:28;96823.31;;;19.36;100.00
11444;BME280;5778;47.856;12.154;2023-08-21T02:01:56;96828.41;;;19.37;100.00
11444;BME280;5778;47.856;12.154;2023-08-21T02:04:24;96824.63;;;19.38;100.00
11444;BME280;5778;47.856;12.154;2023-08-21T02:06:51;96814.53;;;19.44;100.00
11444;BME280;5778;47.856;12.154;2023-08-21T02:09:18;96812.94;;;19.43;100.00
11444;BME280;5778;47.856;12.154;2023-08-21T02:11:45;96811.34;;;19.42;100.00
11444;BME280;5778;47.856;12.154;2023-08-21T02:14:12;96814.28;;;19.27;100.00
11444;BME280;5778;47.856;12.154;2023-08-21T02:16:41;96824.69;;;19.15;100.00
11444;BME280;5778;47.856;12.154;2023-08-21T02:19:07;96830.38;;;19.13;100.00
11444;BME280;5778;47.856;12.154;2023-08-21T02:21:35;96821.66;;;19.03;100.00
11444;BME280;5778;47.856;12.154;2023-08-21T02:24:03;96832.22;;;19.18;100.00
11444;BME280;5778;47.856;12.154;2023-08-21T02:26:30;96827.09;;;19.16;100.00
11444;BME280;5778;47.856;12.154;2023-08-21T02:28:57;96824.84;;;19.05;100.00
11444;BME280;5778;47.856;12.154;2023-08-21T02:31:24;96831.00;;;18.92;100.00
11444;BME280;5778;47.856;12.154;2023-08-21T02:33:52;96830.16;;;19.10;100.00
11444;BME280;5778;47.856;12.154;2023-08-21T02:36:19;96833.38;;;19.12;100.00
11444;BME280;5778;47.856;12.154;2023-08-21T02:38:46;96834.53;;;19.06;100.00
11444;BME280;5778;47.856;12.154;2023-08-21T02:41:13;96829.38;;;18.91;100.00
11444;BME280;5778;47.856;12.154;2023-08-21T02:43:40;96824.00;;;18.91;100.00
11444;BME280;5778;47.856;12.154;2023-08-21T02:46:07;96820.19;;;19.10;100.00
11444;BME280;5778;47.856;12.154;2023-08-21T02:48:34;96821.56;;;19.08;100.00
11444;BME280;5778;47.856;12.154;2023-08-21T02:51:02;96803.28;;;18.86;100.00
11444;BME280;5778;47.856;12.154;2023-08-21T02:53:29;96812.25;;;18.82;100.00
11444;BME280;5778;47.856;12.154;2023-08-21T02:55:56;96808.25;;;18.79;100.00
11444;BME280;5778;47.856;12.154;2023-08-21T02:58:23;96816.13;;;18.57;100.00
11444;BME280;5778;47.856;12.154;2023-08-21T03:00:50;96817.94;;;18.62;100.00
11444;BME280;5778;47.856;12.154;2023-08-21T03:03:16;96810.28;;;18.50;100.00
11444;BME280;5778;47.856;12.154;2023-08-21T03:05:43;96810.78;;;18.52;100.00
11444;BME280;5778;47.856;12.154;2023-08-21T03:08:12;96817.28;;;18.51;100.00
11444;BME280;5778;47.856;12.154;2023-08-21T03:10:39;96815.84;;;18.59;100.00
11444;BME280;5778;47.856;12.154;2023-08-21T03:13:06;96820.69;;;18.75;100.00
11444;BME280;5778;47.856;12.154;2023-08-21T03:15:34;96831.94;;;18.82;100.00
11444;BME280;5778;47.856;12.154;2023-08-21T03:18:01;96831.88;;;18.87;100.00
11444;BME280;5778;47.856;12.154;2023-08-21T03:20:28;96828.44;;;19.00;100.00
11444;BME280;5778;47.856;12.154;2023-08-21T03:22:56;96819.53;;;19.00;100.00
11444;BME280;5778;47.856;12.154;2023-08-21T03:25:25;96819.91;;;18.93;100.00
11444;BME280;5778;47.856;12.154;2023-08-21T03:27:52;96828.94;;;19.02;100.00
11444;BME280;5778;47.856;12.154;2023-08-21T03:30:19;96828.88;;;18.89;100.00
11444;BME280;5778;47.856;12.154;2023-08-21T03:32:47;96831.13;;;19.19;100.00
11444;BME280;5778;47.856;12.154;2023-08-21T03:35:14;96825.66;;;19.24;100.00
11444;BME280;5778;47.856;12.154;2023-08-21T03:37:41;96820.56;;;19.22;100.00
11444;BME280;5778;47.856;12.154;2023-08-21T03:40:12;96821.09;;;19.19;100.00
11444;BME280;5778;47.856;12.154;2023-08-21T03:42:41;96822.28;;;19.13;100.00
11444;BME280;5778;47.856;12.154;2023-08-21T03:45:09;96827.94;;;18.61;100.00
11444;BME280;5778;47.856;12.154;2023-08-21T03:47:36;96830.09;;;18.59;100.00
11444;BME280;5778;47.856;12.154;2023-08-21T03:50:09;96829.59;;;18.76;100.00
11444;BME280;5778;47.856;12.154;2023-08-21T03:52:36;96838.41;;;18.81;100.00
11444;BME280;5778;47.856;12.154;2023-08-21T03:55:04;96837.63;;;18.81;100.00
11444;BME280;5778;47.856;12.154;2023-08-21T03:57:31;96839.44;;;18.85;100.00
11444;BME280;5778;47.856;12.154;2023-08-21T03:59:59;96845.78;;;18.94;100.00
11444;BME280;5778;47.856;12.154;2023-08-21T04:02:26;96844.47;;;18.92;100.00
11444;BME280;5778;47.856;12.154;2023-08-21T04:04:53;96840.31;;;18.99;100.00
11444;BME280;5778;47.856;12.154;2023-08-21T04:07:20;96850.13;;;19.09;100.00
11444;BME280;5778;47.856;12.154;2023-08-21T04:09:47;96847.44;;;19.09;100.00
11444;BME280;5778;47.856;12.154;2023-08-21T04:12:13;96835.84;;;18.90;100.00
11444;BME280;5778;47.856;12.154;2023-08-21T04:14:41;96841.97;;;18.77;100.00
11444;BME280;5778;47.856;12.154;2023-08-21T04:17:09;96841.00;;;18.68;100.00
11444;BME280;5778;47.856;12.154;2023-08-21T04:19:37;96846.28;;;18.78;100.00
11444;BME280;5778;47.856;12.154;2023-08-21T04:22:06;96854.56;;;18.81;100.00
11444;BME280;5778;47.856;12.154;2023-08-21T04:24:33;96850.56;;;18.79;100.00
11444;BME280;5778;47.856;12.154;2023-08-21T04:27:00;96855.09;;;18.65;100.00
11444;BME280;5778;47.856;12.154;2023-08-21T04:29:28;96851.78;;;18.68;100.00
11444;BME280;5778;47.856;12.154;2023-08-21T04:31:54;96855.50;;;18.72;100.00
11444;BME280;5778;47.856;12.154;2023-08-21T04:34:23;96866.03;;;18.92;100.00
11444;BME280;5778;47.856;12.154;2023-08-21T04:36:50;96857.34;;;18.95;100.00
11444;BME280;5778;47.856;12.154;2023-08-21T04:39:17;96851.88;;;19.00;100.00
11444;BME280;5778;47.856;12.154;2023-08-21T04:41:45;96862.66;;;19.00;100.00
11444;BME280;5778;47.856;12.154;2023-08-21T04:44:13;96859.47;;;18.98;100.00
11444;BME280;5778;47.856;12.154;2023-08-21T04:46:41;96861.50;;;19.06;100.00
11444;BME280;5778;47.856;12.154;2023-08-21T04:49:10;96867.34;;;19.13;100.00
11444;BME280;5778;47.856;12.154;2023-08-21T04:51:38;96865.22;;;19.10;100.00
11444;BME280;5778;47.856;12.154;2023-08-21T04:54:05;96866.31;;;19.09;100.00
11444;BME280;5778;47.856;12.154;2023-08-21T04:56:32;96869.50;;;19.11;100.00
11444;BME280;5778;47.856;12.154;2023-08-21T04:58:59;96871.63;;;19.14;100.00
11444;BME280;5778;47.856;12.154;2023-08-21T05:01:28;96874.22;;;19.24;100.00
11444;BME280;5778;47.856;12.154;2023-08-21T05:03:57;96874.91;;;19.29;100.00
11444;BME280;5778;47.856;12.154;2023-08-21T05:06:24;96878.94;;;19.32;100.00
11444;BME280;5778;47.856;12.154;2023-08-21T05:08:53;96880.66;;;19.41;100.00
11444;BME280;5778;47.856;12.154;2023-08-21T05:11:20;96882.09;;;19.52;100.00
11444;BME280;5778;47.856;12.154;2023-08-21T05:13:46;96881.56;;;19.69;100.00
11444;BME280;5778;47.856;12.154;2023-08-21T05:16:16;96878.16;;;19.77;100.00
11444;BME280;5778;47.856;12.154;2023-08-21T05:18:44;96886.22;;;19.95;100.00
11444;BME280;5778;47.856;12.154;2023-08-21T05:21:11;96886.00;;;19.92;100.00
11444;BME280;5778;47.856;12.154;2023-08-21T05:23:39;96890.06;;;20.08;100.00
11444;BME280;5778;47.856;12.154;2023-08-21T05:26:09;96887.69;;;19.88;100.00
11444;BME280;5778;47.856;12.154;2023-08-21T05:28:36;96892.63;;;19.99;100.00
11444;BME280;5778;47.856;12.154;2023-08-21T05:31:03;96894.75;;;20.02;100.00
11444;BME280;5778;47.856;12.154;2023-08-21T05:33:43;96898.72;;;20.23;100.00
11444;BME280;5778;47.856;12.154;2023-08-21T05:36:10;96891.00;;;20.30;100.00
11444;BME280;5778;47.856;12.154;2023-08-21T05:38:37;96904.09;;;20.50;100.00
11444;BME280;5778;47.856;12.154;2023-08-21T05:41:04;96892.59;;;20.72;100.00
11444;BME280;5778;47.856;12.154;2023-08-21T05:43:33;96892.88;;;20.84;100.00
11444;BME280;5778;47.856;12.154;2023-08-21T05:46:01;96897.78;;;21.09;100.00
11444;BME280;5778;47.856;12.154;2023-08-21T05:48:28;96898.22;;;21.24;100.00
11444;BME280;5778;47.856;12.154;2023-08-21T05:50:55;96892.00;;;21.46;100.00
11444;BME280;5778;47.856;12.154;2023-08-21T05:53:22;96893.41;;;21.57;100.00
11444;BME280;5778;47.856;12.154;2023-08-21T05:55:52;96890.41;;;21.67;100.00
11444;BME280;5778;47.856;12.154;2023-08-21T05:58:18;96893.44;;;21.79;100.00
11444;BME280;5778;47.856;12.154;2023-08-21T06:00:47;96886.25;;;21.83;100.00
11444;BME280;5778;47.856;12.154;2023-08-21T06:03:14;96885.28;;;22.01;100.00
11444;BME280;5778;47.856;12.154;2023-08-21T06:06:01;96893.03;;;21.94;100.00
11444;BME280;5778;47.856;12.154;2023-08-21T06:08:28;96893.19;;;21.97;100.00
11444;BME280;5778;47.856;12.154;2023-08-21T06:10:54;96893.69;;;21.99;100.00
11444;BME280;5778;47.856;12.154;2023-08-21T06:13:24;96891.03;;;22.08;100.00
11444;BME280;5778;47.856;12.154;2023-08-21T06:15:56;96891.16;;;22.03;100.00
11444;BME280;5778;47.856;12.154;2023-08-21T06:18:26;96891.78;;;22.30;100.00
11444;BME280;5778;47.856;12.154;2023-08-21T06:20:54;96890.19;;;22.38;100.00
11444;BME280;5778;47.856;12.154;2023-08-21T06:23:25;96892.19;;;22.46;100.00
11444;BME280;5778;47.856;12.154;2023-08-21T06:25:53;96895.28;;;22.61;100.00
11444;BME280;5778;47.856;12.154;2023-08-21T06:28:31;96894.38;;;22.83;100.00
11444;BME280;5778;47.856;12.154;2023-08-21T06:30:59;96889.41;;;22.68;100.00
11444;BME280;5778;47.856;12.154;2023-08-21T06:33:29;96889.91;;;22.87;100.00
11444;BME280;5778;47.856;12.154;2023-08-21T06:36:00;96895.16;;;22.83;100.00
11444;BME280;5778;47.856;12.154;2023-08-21T06:38:33;96892.88;;;22.60;100.00
11444;BME280;5778;47.856;12.154;2023-08-21T06:41:02;96903.38;;;22.53;100.00
11444;BME280;5778;47.856;12.154;2023-08-21T06:43:35;96905.50;;;22.64;100.00
11444;BME280;5778;47.856;12.154;2023-08-21T06:46:07;96895.97;;;22.75;100.00
11444;BME280;5778;47.856;12.154;2023-08-21T06:48:36;96899.59;;;22.71;100.00
11444;BME280;5778;47.856;12.154;2023-08-21T06:51:03;96902.47;;;22.66;100.00
11444;BME280;5778;47.856;12.154;2023-08-21T06:53:30;96892.00;;;22.90;100.00
11444;BME280;5778;47.856;12.154;2023-08-21T06:55:57;96900.31;;;22.93;100.00
11444;BME280;5778;47.856;12.154;2023-08-21T06:58:24;96902.25;;;23.10;100.00
11444;BME280;5778;47.856;12.154;2023-08-21T07:00:50;96892.41;;;23.39;100.00
11444;BME280;5778;47.856;12.154;2023-08-21T07:03:19;96888.56;;;23.49;100.00
11444;BME280;5778;47.856;12.154;2023-08-21T07:05:46;96890.16;;;23.67;100.00
11444;BME280;5778;47.856;12.154;2023-08-21T07:08:13;96890.81;;;23.64;100.00
11444;BME280;5778;47.856;12.154;2023-08-21T07:10:40;96890.47;;;23.91;100.00
11444;BME280;5778;47.856;12.154;2023-08-21T07:13:07;96889.00;;;24.10;100.00
11444;BME280;5778;47.856;12.154;2023-08-21T07:15:34;96893.69;;;24.39;100.00
11444;BME280;5778;47.856;12.154;2023-08-21T07:18:01;96899.50;;;24.20;100.00
11444;BME280;5778;47.856;12.154;2023-08-21T07:20:29;96896.53;;;24.42;100.00
11444;BME280;5778;47.856;12.154;2023-08-21T07:22:56;96903.19;;;24.16;100.00
11444;BME280;5778;47.856;12.154;2023-08-21T07:25:23;96907.50;;;24.17;100.00
11444;BME280;5778;47.856;12.154;2023-08-21T07:27:51;96891.47;;;24.32;100.00
11444;BME280;5778;47.856;12.154;2023-08-21T07:30:18;96896.84;;;24.49;100.00
11444;BME280;5778;47.856;12.154;2023-08-21T07:32:46;96898.81;;;24.78;100.00
11444;BME280;5778;47.856;12.154;2023-08-21T07:35:13;96900.41;;;25.08;100.00
11444;BME280;5778;47.856;12.154;2023-08-21T07:37:43;96904.13;;;25.24;100.00
11444;BME280;5778;47.856;12.154;2023-08-21T07:40:10;96900.31;;;24.96;100.00
11444;BME280;5778;47.856;12.154;2023-08-21T07:42:39;96898.31;;;25.05;100.00
11444;BME280;5778;47.856;12.154;2023-08-21T07:45:09;96905.38;;;25.06;100.00
11444;BME280;5778;47.856;12.154;2023-08-21T07:47:41;96900.13;;;25.30;100.00
11444;BME280;5778;47.856;12.154;2023-08-21T07:50:16;96902.50;;;25.31;100.00
11444;BME280;5778;47.856;12.154;2023-08-21T07:52:44;96903.84;;;25.46;100.00
11444;BME280;5778;47.856;12.154;2023-08-21T07:55:12;96904.25;;;25.36;100.00
11444;BME280;5778;47.856;12.154;2023-08-21T07:57:39;96911.88;;;25.63;100.00
11444;BME280;5778;47.856;12.154;2023-08-21T08:00:07;96910.63;;;25.40;100.00
11444;BME280;5778;47.856;12.154;2023-08-21T08:02:38;96902.06;;;25.50;100.00
11444;BME280;5778;47.856;12.154;2023-08-21T08:05:06;96900.28;;;25.86;100.00
11444;BME280;5778;47.856;12.154;2023-08-21T08:07:33;96909.47;;;26.14;100.00
11444;BME280;5778;47.856;12.154;2023-08-21T08:10:02;96903.75;;;25.95;100.00
11444;BME280;5778;47.856;12.154;2023-08-21T08:12:29;96905.78;;;26.31;100.00
11444;BME280;5778;47.856;12.154;2023-08-21T08:14:56;96908.56;;;26.55;100.00
11444;BME280;5778;47.856;12.154;2023-08-21T08:17:22;96908.44;;;26.51;100.00
11444;BME280;5778;47.856;12.154;2023-08-21T08:19:49;96906.47;;;26.52;100.00
11444;BME280;5778;47.856;12.154;2023-08-21T08:22:16;96909.06;;;26.69;100.00
11444;BME280;5778;47.856;12.154;2023-08-21T08:24:43;96908.13;;;26.77;100.00
11444;BME280;5778;47.856;12.154;2023-08-21T08:27:11;96895.75;;;26.55;100.00
11444;BME280;5778;47.856;12.154;2023-08-21T08:29:38;96906.31;;;26.81;100.00
11444;BME280;5778;47.856;12.154;2023-08-21T08:32:05;96906.75;;;26.95;100.00
11444;BME280;5778;47.856;12.154;2023-08-21T08:34:32;96909.16;;;26.96;100.00
11444;BME280;5778;47.856;12.154;2023-08-21T08:36:59;96899.59;;;27.26;100.00
11444;BME280;5778;47.856;12.154;2023-08-21T08:39:26;96904.94;;;27.23;100.00
11444;BME280;5778;47.856;12.154;2023-08-21T08:41:58;96900.81;;;27.41;100.00
11444;BME280;5778;47.856;12.154;2023-08-21T08:44:26;96905.75;;;27.63;100.00
11444;BME280;5778;47.856;12.154;2023-08-21T08:46:54;96903.91;;;27.79;100.00
11444;BME280;5778;47.856;12.154;2023-08-21T08:49:22;96901.44;;;27.50;100.00
11444;BME280;5778;47.856;12.154;2023-08-21T08:51:50;96908.03;;;27.61;100.00
11444;BME280;5778;47.856;12.154;2023-08-21T08:54:19;96903.78;;;27.75;100.00
11444;BME280;5778;47.856;12.154;2023-08-21T08:56:46;96907.25;;;28.00;100.00
11444;BME280;5778;47.856;12.154;2023-08-21T08:59:13;96901.50;;;28.05;100.00
11444;BME280;5778;47.856;12.154;2023-08-21T09:01:43;96899.16;;;28.19;100.00
11444;BME280;5778;47.856;12.154;2023-08-21T09:04:10;96900.97;;;28.58;100.00
11444;BME280;5778;47.856;12.154;2023-08-21T09:06:37;96902.66;;;28.47;100.00
11444;BME280;5778;47.856;12.154;2023-08-21T09:09:06;96898.47;;;28.37;100.00
11444;BME280;5778;47.856;12.154;2023-08-21T09:11:36;96896.91;;;28.52;100.00
11444;BME280;5778;47.856;12.154;2023-08-21T09:14:09;96892.66;;;28.70;100.00
11444;BME280;5778;47.856;12.154;2023-08-21T09:16:37;96889.06;;;28.97;100.00
11444;BME280;5778;47.856;12.154;2023-08-21T09:19:05;96896.38;;;28.93;100.00
11444;BME280;5778;47.856;12.154;2023-08-21T09:21:32;96891.28;;;28.76;100.00
11444;BME280;5778;47.856;12.154;2023-08-21T09:24:00;96891.69;;;29.09;100.00
11444;BME280;5778;47.856;12.154;2023-08-21T09:26:30;96889.72;;;29.25;100.00
11444;BME280;5778;47.856;12.154;2023-08-21T09:28:59;96893.97;;;29.22;97.21
11444;BME280;5778;47.856;12.154;2023-08-21T09:31:30;96890.16;;;29.27;100.00
11444;BME280;5778;47.856;12.154;2023-08-21T09:33:58;96884.81;;;28.99;100.00
11444;BME280;5778;47.856;12.154;2023-08-21T09:36:27;96886.78;;;29.52;100.00
11444;BME280;5778;47.856;12.154;2023-08-21T09:38:54;96893.22;;;29.79;94.03
11444;BME280;5778;47.856;12.154;2023-08-21T09:41:22;96885.88;;;29.83;96.56
11444;BME280;5778;47.856;12.154;2023-08-21T09:43:50;96885.50;;;30.22;93.46
11444;BME280;5778;47.856;12.154;2023-08-21T09:46:23;96884.09;;;30.32;96.57
11444;BME280;5778;47.856;12.154;2023-08-21T09:48:51;96873.88;;;30.29;100.00
11444;BME280;5778;47.856;12.154;2023-08-21T09:51:19;96876.31;;;30.34;93.15
11444;BME280;5778;47.856;12.154;2023-08-21T09:53:47;96871.44;;;30.69;83.63
11444;BME280;5778;47.856;12.154;2023-08-21T09:56:15;96871.03;;;30.67;83.29
11444;BME280;5778;47.856;12.154;2023-08-21T09:58:43;96868.34;;;30.96;89.03
11444;BME280;5778;47.856;12.154;2023-08-21T10:01:11;96863.75;;;31.30;85.20
11444;BME280;5778;47.856;12.154;2023-08-21T10:03:39;96860.81;;;31.16;76.85
11444;BME280;5778;47.856;12.154;2023-08-21T10:06:08;96864.38;;;31.46;81.10
11444;BME280;5778;47.856;12.154;2023-08-21T10:08:38;96861.66;;;30.94;70.81
11444;BME280;5778;47.856;12.154;2023-08-21T10:11:09;96860.56;;;31.24;70.66
11444;BME280;5778;47.856;12.154;2023-08-21T10:13:38;96866.22;;;31.68;62.63
11444;BME280;5778;47.856;12.154;2023-08-21T10:16:05;96851.44;;;31.46;62.97
11444;BME280;5778;47.856;12.154;2023-08-21T10:18:35;96856.13;;;32.08;66.44
11444;BME280;5778;47.856;12.154;2023-08-21T10:21:12;96852.53;;;32.04;60.86
11444;BME280;5778;47.856;12.154;2023-08-21T10:23:41;96862.19;;;31.29;55.57
11444;BME280;5778;47.856;12.154;2023-08-21T10:26:10;96856.97;;;31.79;61.69
11444;BME280;5778;47.856;12.154;2023-08-21T10:28:48;96855.72;;;32.06;59.61
11444;BME280;5778;47.856;12.154;2023-08-21T10:31:32;96852.16;;;32.06;58.65
11444;BME280;5778;47.856;12.154;2023-08-21T10:34:01;96847.50;;;32.10;67.34
11444;BME280;5778;47.856;12.154;2023-08-21T10:37:02;96848.91;;;31.97;56.94
11444;BME280;5778;47.856;12.154;2023-08-21T10:39:30;96853.28;;;32.34;54.79
11444;BME280;5778;47.856;12.154;2023-08-21T10:42:02;96843.88;;;32.39;57.43
11444;BME280;5778;47.856;12.154;2023-08-21T10:44:37;96843.53;;;32.91;54.18
11444;BME280;5778;47.856;12.154;2023-08-21T10:47:14;96844.13;;;33.21;55.11
11444;BME280;5778;47.856;12.154;2023-08-21T10:49:43;96836.81;;;32.41;54.95
11444;BME280;5778;47.856;12.154;2023-08-21T10:52:10;96835.88;;;32.70;55.25
11444;BME280;5778;47.856;12.154;2023-08-21T10:54:45;96838.06;;;32.94;57.23
11444;BME280;5778;47.856;12.154;2023-08-21T10:57:14;96845.84;;;33.43;58.01
11444;BME280;5778;47.856;12.154;2023-08-21T10:59:51;96839.81;;;33.27;50.97
11444;BME280;5778;47.856;12.154;2023-08-21T11:02:18;96847.81;;;33.39;58.69
11444;BME280;5778;47.856;12.154;2023-08-21T11:04:45;96841.31;;;33.82;55.87
11444;BME280;5778;47.856;12.154;2023-08-21T11:07:12;96850.06;;;34.05;52.99
11444;BME280;5778;47.856;12.154;2023-08-21T11:09:39;96845.38;;;34.23;55.94
11444;BME280;5778;47.856;12.154;2023-08-21T11:12:08;96840.72;;;34.72;53.73
11444;BME280;5778;47.856;12.154;2023-08-21T11:14:37;96845.47;;;34.61;56.44
11444;BME280;5778;47.856;12.154;2023-08-21T11:17:05;96839.84;;;34.19;67.45
11444;BME280;5778;47.856;12.154;2023-08-21T11:21:59;96842.69;;;34.68;54.23
11444;BME280;5778;47.856;12.154;2023-08-21T11:24:30;96840.31;;;34.56;52.81
11444;BME280;5778;47.856;12.154;2023-08-21T11:26:57;96835.59;;;34.95;53.29
11444;BME280;5778;47.856;12.154;2023-08-21T11:29:24;96834.78;;;35.02;53.54
11444;BME280;5778;47.856;12.154;2023-08-21T11:31:54;96834.75;;;35.16;51.66
11444;BME280;5778;47.856;12.154;2023-08-21T11:34:21;96832.78;;;35.09;58.96
11444;BME280;5778;47.856;12.154;2023-08-21T11:36:48;96837.16;;;34.79;53.86
11444;BME280;5778;47.856;12.154;2023-08-21T11:39:15;96831.63;;;34.58;51.46
11444;BME280;5778;47.856;12.154;2023-08-21T11:41:54;96832.81;;;34.85;59.64
11444;BME280;5778;47.856;12.154;2023-08-21T11:44:22;96836.34;;;34.68;59.86
11444;BME280;5778;47.856;12.154;2023-08-21T11:46:51;96831.94;;;35.44;55.72
11444;BME280;5778;47.856;12.154;2023-08-21T11:49:20;96825.06;;;35.90;51.67
11444;BME280;5778;47.856;12.154;2023-08-21T11:51:48;96826.72;;;35.74;50.42
11444;BME280;5778;47.856;12.154;2023-08-21T11:54:17;96822.78;;;35.68;50.44
11444;BME280;5778;47.856;12.154;2023-08-21T11:56:46;96826.47;;;35.30;51.38
11444;BME280;5778;47.856;12.154;2023-08-21T11:59:21;96834.25;;;35.66;46.48
11444;BME280;5778;47.856;12.154;2023-08-21T12:01:50;96830.88;;;34.78;47.76
11444;BME280;5778;47.856;12.154;2023-08-21T12:04:16;96830.03;;;34.57;49.00
11444;BME280;5778;47.856;12.154;2023-08-21T12:06:45;96822.16;;;34.59;57.11
11444;BME280;5778;47.856;12.154;2023-08-21T12:09:12;96823.66;;;35.40;63.36
11444;BME280;5778;47.856;12.154;2023-08-21T12:11:39;96814.91;;;35.56;60.45
11444;BME280;5778;47.856;12.154;2023-08-21T12:14:06;96812.72;;;36.02;57.47
11444;BME280;5778;47.856;12.154;2023-08-21T12:16:33;96816.19;;;36.20;61.02
11444;BME280;5778;47.856;12.154;2023-08-21T12:19:00;96815.09;;;36.03;54.02
11444;BME280;5778;47.856;12.154;2023-08-21T12:21:28;96812.34;;;36.03;58.57
11444;BME280;5778;47.856;12.154;2023-08-21T12:23:57;96806.47;;;36.49;53.67
11444;BME280;5778;47.856;12.154;2023-08-21T12:26:24;96805.13;;;36.74;52.69
11444;BME280;5778;47.856;12.154;2023-08-21T12:28:51;96800.59;;;36.43;50.84
11444;BME280;5778;47.856;12.154;2023-08-21T12:31:18;96794.94;;;36.61;56.56
11444;BME280;5778;47.856;12.154;2023-08-21T12:33:50;96793.09;;;36.44;63.23
11444;BME280;5778;47.856;12.154;2023-08-21T12:36:17;96793.56;;;36.83;56.37
11444;BME280;5778;47.856;12.154;2023-08-21T12:38:45;96787.63;;;37.21;56.53
11444;BME280;5778;47.856;12.154;2023-08-21T12:41:13;96786.66;;;36.54;58.23
11444;BME280;5778;47.856;12.154;2023-08-21T12:43:40;96786.66;;;36.98;53.77
11444;BME280;5778;47.856;12.154;2023-08-21T12:46:07;96793.59;;;36.79;49.15
11444;BME280;5778;47.856;12.154;2023-08-21T12:48:34;96782.84;;;35.69;51.57
11444;BME280;5778;47.856;12.154;2023-08-21T12:51:01;96782.22;;;36.09;55.11
11444;BME280;5778;47.856;12.154;2023-08-21T12:53:29;96786.75;;;36.43;54.20
11444;BME280;5778;47.856;12.154;2023-08-21T12:55:56;96785.47;;;36.99;54.91
11444;BME280;5778;47.856;12.154;2023-08-21T12:58:25;96777.06;;;37.09;48.79
11444;BME280;5778;47.856;12.154;2023-08-21T13:00:53;96772.75;;;36.61;47.88